sensor_id;sensor_type;location;lat;lon;timestamp;pressure;altitude;pressure_sealevel;temperature;humidity
51321;BME280;38732;49.556;6.286;2023-03-20T00:02:21;99899.94;;;13.44;89.11
51321;BME280;38732;49.556;6.286;2023-03-20T00:04:50;99902.56;;;13.36;90.10
51321;BME280;38732;49.556;6.286;2023-03-20T00:07:18;99901.72;;;13.34;90.08
51321;BME280;38732;49.556;6.286;2023-03-20T00:09:46;99913.00;;;13.28;90.42
51321;BME280;38732;49.556;6.286;2023-03-20T00:12:19;99895.69;;;13.27;91.28
51321;BME280;38732;49.556;6.286;2023-03-20T00:14:49;99902.63;;;13.28;90.51
51321;BME280;38732;49.556;6.286;2023-03-20T00:17:19;99901.72;;;13.25;90.26
51321;BME280;38732;49.556;6.286;2023-03-20T00:19:48;99910.34;;;13.25;90.30
51321;BME280;38732;49.556;6.286;2023-03-20T00:22:16;99905.19;;;13.24;91.04
51321;BME280;38732;49.556;6.286;2023-03-20T00:24:44;99906.97;;;13.11;91.56
51321;BME280;38732;49.556;6.286;2023-03-20T00:27:14;99919.88;;;13.23;90.64
51321;BME280;38732;49.556;6.286;2023-03-20T00:29:43;99924.34;;;12.24;97.36
51321;BME280;38732;49.556;6.286;2023-03-20T00:32:12;99920.00;;;12.60;95.94
51321;BME280;38732;49.556;6.286;2023-03-20T00:34:40;99923.50;;;12.48;95.88
51321;BME280;38732;49.556;6.286;2023-03-20T00:37:09;99923.47;;;12.04;99.35
51321;BME280;38732;49.556;6.286;2023-03-20T00:39:39;99920.03;;;12.56;94.65
51321;BME280;38732;49.556;6.286;2023-03-20T00:42:16;99937.00;;;11.29;100.00
51321;BME280;38732;49.556;6.286;2023-03-20T00:44:52;99942.06;;;11.08;100.00
51321;BME280;38732;49.556;6.286;2023-03-20T00:47:22;99935.56;;;12.56;96.61
51321;BME280;38732;49.556;6.286;2023-03-20T00:49:52;99944.16;;;12.82;93.91
51321;BME280;38732;49.556;6.286;2023-03-20T00:52:21;99945.00;;;12.97;91.95
51321;BME280;38732;49.556;6.286;2023-03-20T00:54:50;99943.28;;;12.94;91.08
51321;BME280;38732;49.556;6.286;2023-03-20T00:57:27;99950.19;;;13.04;89.54
51321;BME280;38732;49.556;6.286;2023-03-20T01:02:40;99957.97;;;13.10;88.54
51321;BME280;38732;49.556;6.286;2023-03-20T01:05:08;99958.78;;;13.19;89.56
51321;BME280;38732;49.556;6.286;2023-03-20T01:07:36;99963.97;;;13.17;88.19
51321;BME280;38732;49.556;6.286;2023-03-20T01:10:05;99968.31;;;13.13;87.69
51321;BME280;38732;49.556;6.286;2023-03-20T01:12:33;99971.75;;;13.12;87.46
51321;BME280;38732;49.556;6.286;2023-03-20T01:15:02;99976.06;;;13.20;87.66
51321;BME280;38732;49.556;6.286;2023-03-20T01:17:30;99980.41;;;13.14;87.53
51321;BME280;38732;49.556;6.286;2023-03-20T01:19:58;99988.19;;;13.02;89.35
51321;BME280;38732;49.556;6.286;2023-03-20T01:22:27;99984.75;;;13.03;88.14
51321;BME280;38732;49.556;6.286;2023-03-20T01:24:55;99985.56;;;13.17;87.79
51321;BME280;38732;49.556;6.286;2023-03-20T01:27:23;99991.66;;;13.18;87.00
51321;BME280;38732;49.556;6.286;2023-03-20T01:29:51;99992.50;;;13.15;87.39
51321;BME280;38732;49.556;6.286;2023-03-20T01:32:19;99993.38;;;13.16;86.97
51321;BME280;38732;49.556;6.286;2023-03-20T01:34:48;99989.03;;;13.20;87.40
51321;BME280;38732;49.556;6.286;2023-03-20T01:37:22;99995.94;;;13.19;85.52
51321;BME280;38732;49.556;6.286;2023-03-20T01:39:51;99996.00;;;12.59;88.72
51321;BME280;38732;49.556;6.286;2023-03-20T01:42:19;99989.06;;;13.07;86.36
51321;BME280;38732;49.556;6.286;2023-03-20T01:44:47;99989.91;;;13.17;86.14
51321;BME280;38732;49.556;6.286;2023-03-20T01:47:20;99992.50;;;13.22;85.42
51321;BME280;38732;49.556;6.286;2023-03-20T01:53:14;99986.44;;;13.15;85.79
51321;BME280;38732;49.556;6.286;2023-03-20T01:55:45;99991.66;;;13.18;86.23
51321;BME280;38732;49.556;6.286;2023-03-20T01:58:22;99984.72;;;13.23;86.38
51321;BME280;38732;49.556;6.286;2023-03-20T02:00:52;99989.03;;;13.16;86.81
51321;BME280;38732;49.556;6.286;2023-03-20T02:03:20;99991.63;;;13.26;85.88
51321;BME280;38732;49.556;6.286;2023-03-20T02:05:50;99983.84;;;13.26;87.26
51321;BME280;38732;49.556;6.286;2023-03-20T02:08:28;99983.81;;;13.23;86.50
51321;BME280;38732;49.556;6.286;2023-03-20T02:10:58;99978.66;;;13.15;84.01
51321;BME280;38732;49.556;6.286;2023-03-20T02:13:29;99981.22;;;13.23;84.64
51321;BME280;38732;49.556;6.286;2023-03-20T02:16:09;99965.69;;;13.24;84.63
51321;BME280;38732;49.556;6.286;2023-03-20T02:18:40;99968.31;;;13.18;84.47
51321;BME280;38732;49.556;6.286;2023-03-20T02:21:45;99962.22;;;13.22;85.26
51321;BME280;38732;49.556;6.286;2023-03-20T02:32:57;99970.88;;;13.24;83.84
51321;BME280;38732;49.556;6.286;2023-03-20T02:41:38;99985.63;;;13.04;85.97
51321;BME280;38732;49.556;6.286;2023-03-20T02:47:02;99996.84;;;13.09;84.58
51321;BME280;38732;49.556;6.286;2023-03-20T02:49:53;99988.19;;;13.07;84.74
51321;BME280;38732;49.556;6.286;2023-03-20T02:52:43;99978.66;;;13.16;84.80
51321;BME280;38732;49.556;6.286;2023-03-20T03:01:13;99939.81;;;13.06;84.50
51321;BME280;38732;49.556;6.286;2023-03-20T03:03:50;99947.59;;;13.01;85.23
51321;BME280;38732;49.556;6.286;2023-03-20T03:06:29;99964.88;;;13.01;84.79
51321;BME280;38732;49.556;6.286;2023-03-20T03:09:15;99969.19;;;13.02;85.19
51321;BME280;38732;49.556;6.286;2023-03-20T03:11:48;99971.78;;;13.05;85.83
51321;BME280;38732;49.556;6.286;2023-03-20T03:14:39;99970.91;;;13.00;85.37
51321;BME280;38732;49.556;6.286;2023-03-20T03:17:10;99963.16;;;12.98;84.19
51321;BME280;38732;49.556;6.286;2023-03-20T03:19:44;99959.69;;;13.02;84.41
51321;BME280;38732;49.556;6.286;2023-03-20T03:22:15;99974.34;;;13.08;84.23
51321;BME280;38732;49.556;6.286;2023-03-20T03:24:45;99973.50;;;13.03;84.49
51321;BME280;38732;49.556;6.286;2023-03-20T03:27:19;99973.53;;;13.01;84.71
51321;BME280;38732;49.556;6.286;2023-03-20T03:29:53;99967.47;;;12.99;84.30
51321;BME280;38732;49.556;6.286;2023-03-20T03:32:32;99974.38;;;13.00;83.68
51321;BME280;38732;49.556;6.286;2023-03-20T03:35:03;99971.78;;;13.05;83.51
51321;BME280;38732;49.556;6.286;2023-03-20T03:40:15;99976.09;;;13.04;82.58
51321;BME280;38732;49.556;6.286;2023-03-20T03:42:56;99981.31;;;12.97;82.67
51321;BME280;38732;49.556;6.286;2023-03-20T03:45:47;99983.88;;;13.01;83.07
51321;BME280;38732;49.556;6.286;2023-03-20T03:48:22;99975.25;;;12.91;82.10
51321;BME280;38732;49.556;6.286;2023-03-20T03:50:57;99981.31;;;12.97;82.46
51321;BME280;38732;49.556;6.286;2023-03-20T03:53:38;99976.13;;;12.97;81.80
51321;BME280;38732;49.556;6.286;2023-03-20T03:56:10;99971.81;;;12.77;83.06
51321;BME280;38732;49.556;6.286;2023-03-20T03:58:42;99978.72;;;12.87;83.45
51321;BME280;38732;49.556;6.286;2023-03-20T04:01:13;99991.69;;;12.80;82.33
51321;BME280;38732;49.556;6.286;2023-03-20T04:03:56;99992.53;;;12.72;82.09
51321;BME280;38732;49.556;6.286;2023-03-20T04:06:26;99987.38;;;12.65;83.92
51321;BME280;38732;49.556;6.286;2023-03-20T04:08:55;99996.88;;;12.61;82.61
51321;BME280;38732;49.556;6.286;2023-03-20T04:11:25;99997.72;;;12.57;83.07
51321;BME280;38732;49.556;6.286;2023-03-20T04:13:53;100004.63;;;12.55;83.15
51321;BME280;38732;49.556;6.286;2023-03-20T04:16:23;100011.53;;;12.51;85.60
51321;BME280;38732;49.556;6.286;2023-03-20T04:18:52;100021.88;;;12.21;86.73
51321;BME280;38732;49.556;6.286;2023-03-20T04:21:20;100028.81;;;12.43;86.06
51321;BME280;38732;49.556;6.286;2023-03-20T04:23:49;100028.44;;;11.48;91.72
51321;BME280;38732;49.556;6.286;2023-03-20T04:26:17;100032.03;;;11.75;88.97
51321;BME280;38732;49.556;6.286;2023-03-20T04:28:45;100027.75;;;11.84;87.18
51321;BME280;38732;49.556;6.286;2023-03-20T04:31:13;100033.06;;;12.18;83.25
51321;BME280;38732;49.556;6.286;2023-03-20T04:33:42;100034.84;;;12.33;82.76
51321;BME280;38732;49.556;6.286;2023-03-20T04:36:10;100039.16;;;12.31;82.65
51321;BME280;38732;49.556;6.286;2023-03-20T04:38:39;100039.13;;;12.29;84.05
51321;BME280;38732;49.556;6.286;2023-03-20T04:41:08;100049.88;;;11.30;83.81
51321;BME280;38732;49.556;6.286;2023-03-20T04:43:36;100051.06;;;11.86;83.67
51321;BME280;38732;49.556;6.286;2023-03-20T04:46:04;100032.13;;;11.98;81.75
51321;BME280;38732;49.556;6.286;2023-03-20T04:48:32;100027.84;;;12.07;80.61
51321;BME280;38732;49.556;6.286;2023-03-20T04:51:01;100026.09;;;11.91;83.58
51321;BME280;38732;49.556;6.286;2023-03-20T04:53:29;100029.16;;;11.26;88.48
51321;BME280;38732;49.556;6.286;2023-03-20T04:55:57;100031.13;;;11.66;83.80
51321;BME280;38732;49.556;6.286;2023-03-20T04:58:25;100028.59;;;11.76;82.89
51321;BME280;38732;49.556;6.286;2023-03-20T05:00:53;100034.59;;;11.69;83.03
51321;BME280;38732;49.556;6.286;2023-03-20T05:03:22;100050.97;;;11.69;80.73
51321;BME280;38732;49.556;6.286;2023-03-20T05:05:50;100040.63;;;11.72;81.64
51321;BME280;38732;49.556;6.286;2023-03-20T05:08:18;100037.03;;;11.44;81.08
51321;BME280;38732;49.556;6.286;2023-03-20T05:10:46;100036.19;;;11.45;82.33
51321;BME280;38732;49.556;6.286;2023-03-20T05:13:14;100037.97;;;11.54;81.95
51321;BME280;38732;49.556;6.286;2023-03-20T05:15:43;100035.31;;;11.41;81.18
51321;BME280;38732;49.556;6.286;2023-03-20T05:18:11;100031.88;;;11.44;80.17
51321;BME280;38732;49.556;6.286;2023-03-20T05:20:39;100036.19;;;11.47;81.20
51321;BME280;38732;49.556;6.286;2023-03-20T05:23:07;100029.28;;;11.42;81.02
51321;BME280;38732;49.556;6.286;2023-03-20T05:25:35;100030.97;;;11.37;81.01
51321;BME280;38732;49.556;6.286;2023-03-20T05:28:04;100030.94;;;11.33;80.37
51321;BME280;38732;49.556;6.286;2023-03-20T05:30:32;100048.19;;;11.31;81.66
51321;BME280;38732;49.556;6.286;2023-03-20T05:33:00;100056.78;;;11.30;81.43
51321;BME280;38732;49.556;6.286;2023-03-20T05:35:28;100046.31;;;11.13;82.55
51321;BME280;38732;49.556;6.286;2023-03-20T05:37:57;100041.16;;;11.11;82.42
51321;BME280;38732;49.556;6.286;2023-03-20T05:40:25;100031.41;;;10.78;80.26
51321;BME280;38732;49.556;6.286;2023-03-20T05:42:53;100029.59;;;10.68;81.20
51321;BME280;38732;49.556;6.286;2023-03-20T05:45:21;100033.06;;;10.67;81.72
51321;BME280;38732;49.556;6.286;2023-03-20T05:47:49;100040.72;;;10.59;82.07
51321;BME280;38732;49.556;6.286;2023-03-20T05:50:18;100037.31;;;10.63;83.78
51321;BME280;38732;49.556;6.286;2023-03-20T05:52:46;100037.22;;;10.55;84.34
51321;BME280;38732;49.556;6.286;2023-03-20T05:55:15;100036.31;;;10.50;84.74
51321;BME280;38732;49.556;6.286;2023-03-20T05:57:43;100043.09;;;10.38;83.81
51321;BME280;38732;49.556;6.286;2023-03-20T06:00:12;100045.69;;;10.39;83.81
51321;BME280;38732;49.556;6.286;2023-03-20T06:02:40;100058.66;;;10.44;87.01
51321;BME280;38732;49.556;6.286;2023-03-20T06:05:08;100060.41;;;10.46;85.22
51321;BME280;38732;49.556;6.286;2023-03-20T06:07:37;100062.84;;;10.35;84.10
51321;BME280;38732;49.556;6.286;2023-03-20T06:10:05;100073.25;;;10.39;84.22
51321;BME280;38732;49.556;6.286;2023-03-20T06:12:33;100071.50;;;10.36;84.32
51321;BME280;38732;49.556;6.286;2023-03-20T06:15:02;100079.16;;;10.30;84.99
51321;BME280;38732;49.556;6.286;2023-03-20T06:17:30;100077.50;;;10.33;85.18
51321;BME280;38732;49.556;6.286;2023-03-20T06:19:58;100079.22;;;10.36;84.77
51321;BME280;38732;49.556;6.286;2023-03-20T06:22:27;100082.66;;;10.35;85.37
51321;BME280;38732;49.556;6.286;2023-03-20T06:24:55;100087.06;;;10.44;86.33
51321;BME280;38732;49.556;6.286;2023-03-20T06:27:23;100090.47;;;10.43;87.33
51321;BME280;38732;49.556;6.286;2023-03-20T06:29:51;100081.94;;;10.48;87.19
51321;BME280;38732;49.556;6.286;2023-03-20T06:32:20;100080.28;;;10.55;85.72
51321;BME280;38732;49.556;6.286;2023-03-20T06:34:48;100081.06;;;10.48;87.87
51321;BME280;38732;49.556;6.286;2023-03-20T06:37:18;100079.38;;;10.48;86.91
51321;BME280;38732;49.556;6.286;2023-03-20T06:39:46;100081.09;;;10.49;86.07
51321;BME280;38732;49.556;6.286;2023-03-20T06:42:14;100069.97;;;10.56;85.42
51321;BME280;38732;49.556;6.286;2023-03-20T06:44:43;100067.31;;;10.50;86.75
51321;BME280;38732;49.556;6.286;2023-03-20T06:47:11;100069.97;;;10.56;86.48
51321;BME280;38732;49.556;6.286;2023-03-20T06:49:39;100066.59;;;10.64;86.62
51321;BME280;38732;49.556;6.286;2023-03-20T06:52:13;100077.78;;;10.64;86.42
51321;BME280;38732;49.556;6.286;2023-03-20T06:54:42;100089.03;;;10.69;87.66
51321;BME280;38732;49.556;6.286;2023-03-20T06:57:10;100090.88;;;10.86;88.24
51321;BME280;38732;49.556;6.286;2023-03-20T06:59:38;100096.28;;;10.26;91.47
51321;BME280;38732;49.556;6.286;2023-03-20T07:02:08;100096.78;;;9.94;93.92
51321;BME280;38732;49.556;6.286;2023-03-20T07:04:36;100106.84;;;9.18;100.00
51321;BME280;38732;49.556;6.286;2023-03-20T07:07:04;100118.31;;;8.84;100.00
51321;BME280;38732;49.556;6.286;2023-03-20T07:09:33;100109.00;;;8.92;100.00
51321;BME280;38732;49.556;6.286;2023-03-20T07:12:02;100108.19;;;9.49;100.00
51321;BME280;38732;49.556;6.286;2023-03-20T07:14:30;100108.94;;;9.42;100.00
51321;BME280;38732;49.556;6.286;2023-03-20T07:16:58;100121.19;;;9.02;100.00
51321;BME280;38732;49.556;6.286;2023-03-20T07:19:26;100114.84;;;9.96;99.29
51321;BME280;38732;49.556;6.286;2023-03-20T07:21:58;100118.41;;;8.89;100.00
51321;BME280;38732;49.556;6.286;2023-03-20T07:24:27;100109.38;;;9.73;98.31
51321;BME280;38732;49.556;6.286;2023-03-20T07:26:55;100119.03;;;8.78;100.00
51321;BME280;38732;49.556;6.286;2023-03-20T07:29:23;100103.34;;;9.72;95.79
51321;BME280;38732;49.556;6.286;2023-03-20T07:31:51;100112.38;;;9.43;95.45
51321;BME280;38732;49.556;6.286;2023-03-20T07:34:20;100103.75;;;10.03;93.00
51321;BME280;38732;49.556;6.286;2023-03-20T07:36:48;100114.22;;;9.50;96.14
51321;BME280;38732;49.556;6.286;2023-03-20T07:39:16;100125.91;;;8.78;100.00
51321;BME280;38732;49.556;6.286;2023-03-20T07:41:44;100124.22;;;8.36;100.00
51321;BME280;38732;49.556;6.286;2023-03-20T07:44:13;100125.31;;;10.07;95.27
51321;BME280;38732;49.556;6.286;2023-03-20T07:46:41;100138.34;;;9.54;100.00
51321;BME280;38732;49.556;6.286;2023-03-20T07:49:09;100132.00;;;9.91;96.24
51321;BME280;38732;49.556;6.286;2023-03-20T07:51:37;100125.34;;;10.88;87.52
51321;BME280;38732;49.556;6.286;2023-03-20T07:54:05;100125.66;;;9.69;94.76
51321;BME280;38732;49.556;6.286;2023-03-20T07:56:34;100120.84;;;10.67;88.04
51321;BME280;38732;49.556;6.286;2023-03-20T07:59:02;100131.72;;;9.71;95.79
51321;BME280;38732;49.556;6.286;2023-03-20T08:01:30;100136.25;;;9.29;95.88
51321;BME280;38732;49.556;6.286;2023-03-20T08:03:59;100128.84;;;9.53;96.83
51321;BME280;38732;49.556;6.286;2023-03-20T08:06:27;100133.16;;;8.99;100.00
51321;BME280;38732;49.556;6.286;2023-03-20T08:08:55;100125.22;;;9.99;96.16
51321;BME280;38732;49.556;6.286;2023-03-20T08:11:23;100119.31;;;10.84;87.82
51321;BME280;38732;49.556;6.286;2023-03-20T08:13:52;100136.50;;;10.82;89.57
51321;BME280;38732;49.556;6.286;2023-03-20T08:16:20;100132.75;;;11.50;83.37
51321;BME280;38732;49.556;6.286;2023-03-20T08:18:48;100136.84;;;10.35;87.64
51321;BME280;38732;49.556;6.286;2023-03-20T08:21:16;100139.44;;;11.22;83.96
51321;BME280;38732;49.556;6.286;2023-03-20T08:23:44;100139.03;;;11.86;83.12
51321;BME280;38732;49.556;6.286;2023-03-20T08:26:13;100131.91;;;11.51;82.30
51321;BME280;38732;49.556;6.286;2023-03-20T08:28:41;100141.66;;;10.82;86.98
51321;BME280;38732;49.556;6.286;2023-03-20T08:31:09;100147.03;;;10.24;90.00
51321;BME280;38732;49.556;6.286;2023-03-20T08:33:37;100164.81;;;9.45;93.44
51321;BME280;38732;49.556;6.286;2023-03-20T08:36:06;100165.47;;;9.32;94.25
51321;BME280;38732;49.556;6.286;2023-03-20T08:38:34;100158.72;;;10.65;90.77
51321;BME280;38732;49.556;6.286;2023-03-20T08:41:02;100165.38;;;10.44;88.97
51321;BME280;38732;49.556;6.286;2023-03-20T08:43:31;100162.56;;;11.04;83.48
51321;BME280;38732;49.556;6.286;2023-03-20T08:45:59;100172.69;;;10.84;84.64
51321;BME280;38732;49.556;6.286;2023-03-20T08:48:27;100185.22;;;10.50;84.70
51321;BME280;38732;49.556;6.286;2023-03-20T08:50:55;100181.59;;;10.34;80.55
51321;BME280;38732;49.556;6.286;2023-03-20T08:53:24;100175.06;;;10.64;82.82
51321;BME280;38732;49.556;6.286;2023-03-20T08:55:52;100177.28;;;10.34;84.09
51321;BME280;38732;49.556;6.286;2023-03-20T08:58:21;100196.28;;;9.80;86.28
51321;BME280;38732;49.556;6.286;2023-03-20T09:00:50;100196.94;;;9.64;86.73
51321;BME280;38732;49.556;6.286;2023-03-20T09:03:19;100189.81;;;10.74;85.50
51321;BME280;38732;49.556;6.286;2023-03-20T09:05:49;100194.72;;;9.90;87.38
51321;BME280;38732;49.556;6.286;2023-03-20T09:08:18;100200.84;;;11.49;77.49
51321;BME280;38732;49.556;6.286;2023-03-20T09:10:47;100197.63;;;11.76;74.33
51321;BME280;38732;49.556;6.286;2023-03-20T09:13:15;100211.66;;;10.29;76.89
51321;BME280;38732;49.556;6.286;2023-03-20T09:15:44;100202.44;;;11.35;74.31
51321;BME280;38732;49.556;6.286;2023-03-20T09:18:12;100201.44;;;11.17;75.90
51321;BME280;38732;49.556;6.286;2023-03-20T09:20:40;100200.03;;;11.53;71.76
51321;BME280;38732;49.556;6.286;2023-03-20T09:23:08;100206.50;;;11.07;73.69
51321;BME280;38732;49.556;6.286;2023-03-20T09:25:37;100190.72;;;11.83;69.99
51321;BME280;38732;49.556;6.286;2023-03-20T09:28:05;100196.59;;;11.56;70.83
51321;BME280;38732;49.556;6.286;2023-03-20T09:30:33;100199.56;;;11.01;73.19
51321;BME280;38732;49.556;6.286;2023-03-20T09:33:01;100193.91;;;11.43;72.44
51321;BME280;38732;49.556;6.286;2023-03-20T09:35:29;100190.66;;;11.66;73.98
51321;BME280;38732;49.556;6.286;2023-03-20T09:37:58;100201.25;;;11.00;74.54
51321;BME280;38732;49.556;6.286;2023-03-20T09:40:29;100201.56;;;10.50;76.14
51321;BME280;38732;49.556;6.286;2023-03-20T09:43:28;100189.44;;;11.26;73.97
51321;BME280;38732;49.556;6.286;2023-03-20T09:51:21;100194.00;;;10.64;72.76
51321;BME280;38732;49.556;6.286;2023-03-20T09:53:58;100190.81;;;10.90;74.32
51321;BME280;38732;49.556;6.286;2023-03-20T09:56:30;100188.97;;;10.78;76.58
51321;BME280;38732;49.556;6.286;2023-03-20T09:59:01;100183.56;;;11.42;72.35
51321;BME280;38732;49.556;6.286;2023-03-20T10:01:49;100188.69;;;11.37;72.88
51321;BME280;38732;49.556;6.286;2023-03-20T10:04:19;100191.63;;;10.86;75.60
51321;BME280;38732;49.556;6.286;2023-03-20T10:06:47;100174.91;;;11.40;68.39
51321;BME280;38732;49.556;6.286;2023-03-20T10:09:20;100180.31;;;10.71;72.87
51321;BME280;38732;49.556;6.286;2023-03-20T10:12:09;100186.06;;;11.31;72.25
51321;BME280;38732;49.556;6.286;2023-03-20T10:14:52;100186.19;;;11.50;67.27
51321;BME280;38732;49.556;6.286;2023-03-20T10:17:37;100181.16;;;10.69;68.62
51321;BME280;38732;49.556;6.286;2023-03-20T10:20:13;100190.25;;;11.18;64.87
51321;BME280;38732;49.556;6.286;2023-03-20T10:22:56;100181.72;;;11.30;68.44
51321;BME280;38732;49.556;6.286;2023-03-20T10:25:35;100179.75;;;12.18;61.76
51321;BME280;38732;49.556;6.286;2023-03-20T10:28:12;100174.75;;;12.62;59.94
51321;BME280;38732;49.556;6.286;2023-03-20T10:31:13;100177.09;;;10.95;65.93
51321;BME280;38732;49.556;6.286;2023-03-20T10:39:48;100178.31;;;13.20;59.08
51321;BME280;38732;49.556;6.286;2023-03-20T10:42:23;100169.53;;;12.47;62.96
51321;BME280;38732;49.556;6.286;2023-03-20T10:44:57;100170.44;;;12.57;61.07
51321;BME280;38732;49.556;6.286;2023-03-20T10:47:27;100176.53;;;11.27;65.97
51321;BME280;38732;49.556;6.286;2023-03-20T10:50:02;100170.06;;;11.86;66.16
51321;BME280;38732;49.556;6.286;2023-03-20T10:52:37;100161.00;;;12.92;62.28
51321;BME280;38732;49.556;6.286;2023-03-20T10:55:11;100150.56;;;12.56;61.89
51321;BME280;38732;49.556;6.286;2023-03-20T10:57:46;100163.59;;;12.97;60.20
51321;BME280;38732;49.556;6.286;2023-03-20T11:00:20;100154.97;;;12.86;59.88
51321;BME280;38732;49.556;6.286;2023-03-20T11:02:49;100152.22;;;12.30;60.35
51321;BME280;38732;49.556;6.286;2023-03-20T11:05:31;100169.13;;;11.72;61.82
51321;BME280;38732;49.556;6.286;2023-03-20T11:08:05;100151.50;;;12.94;59.68
51321;BME280;38732;49.556;6.286;2023-03-20T11:10:36;100164.50;;;13.25;57.45
51321;BME280;38732;49.556;6.286;2023-03-20T11:13:24;100154.97;;;12.92;60.76
51321;BME280;38732;49.556;6.286;2023-03-20T11:15:53;100164.19;;;12.12;63.54
51321;BME280;38732;49.556;6.286;2023-03-20T11:18:25;100150.69;;;13.51;58.40
51321;BME280;38732;49.556;6.286;2023-03-20T11:20:55;100155.81;;;12.86;60.45
51321;BME280;38732;49.556;6.286;2023-03-20T11:23:26;100141.19;;;13.53;56.35
51321;BME280;38732;49.556;6.286;2023-03-20T11:26:00;100140.34;;;13.31;54.77
51321;BME280;38732;49.556;6.286;2023-03-20T11:28:33;100154.75;;;12.17;59.67
51321;BME280;38732;49.556;6.286;2023-03-20T11:33:43;100151.50;;;12.81;57.62
51321;BME280;38732;49.556;6.286;2023-03-20T11:36:24;100150.50;;;12.36;58.07
51321;BME280;38732;49.556;6.286;2023-03-20T11:38:58;100155.03;;;13.38;55.16
51321;BME280;38732;49.556;6.286;2023-03-20T11:41:28;100154.09;;;12.87;56.14
51321;BME280;38732;49.556;6.286;2023-03-20T11:43:56;100156.75;;;13.34;54.04
51321;BME280;38732;49.556;6.286;2023-03-20T11:46:24;100151.56;;;13.54;54.17
51321;BME280;38732;49.556;6.286;2023-03-20T11:49:18;100150.66;;;13.20;55.20
51321;BME280;38732;49.556;6.286;2023-03-20T11:51:47;100151.53;;;13.22;55.71
51321;BME280;38732;49.556;6.286;2023-03-20T11:54:21;100144.56;;;13.92;53.34
51321;BME280;38732;49.556;6.286;2023-03-20T11:56:59;100147.22;;;13.59;53.73
51321;BME280;38732;49.556;6.286;2023-03-20T11:59:32;100155.00;;;13.06;55.07
51321;BME280;38732;49.556;6.286;2023-03-20T12:02:04;100141.16;;;13.67;55.88
51321;BME280;38732;49.556;6.286;2023-03-20T12:04:43;100136.78;;;13.84;54.18
51321;BME280;38732;49.556;6.286;2023-03-20T12:07:31;100143.66;;;12.51;58.48
51321;BME280;38732;49.556;6.286;2023-03-20T12:10:06;100135.13;;;13.40;55.82
51321;BME280;38732;49.556;6.286;2023-03-20T12:13:44;100144.59;;;12.90;57.95
51321;BME280;38732;49.556;6.286;2023-03-20T12:15:46;100136.69;;;14.18;56.76
51321;BME280;38732;49.556;6.286;2023-03-20T12:18:36;100125.50;;;13.94;56.78
51321;BME280;38732;49.556;6.286;2023-03-20T12:24:18;100122.94;;;13.88;53.45
51321;BME280;38732;49.556;6.286;2023-03-20T12:26:57;100124.75;;;13.58;54.99
51321;BME280;38732;49.556;6.286;2023-03-20T12:29:59;100129.94;;;13.22;55.21
51321;BME280;38732;49.556;6.286;2023-03-20T12:32:35;100130.50;;;11.99;57.80
51321;BME280;38732;49.556;6.286;2023-03-20T12:35:15;100126.44;;;12.77;58.63
51321;BME280;38732;49.556;6.286;2023-03-20T12:37:46;100116.94;;;13.48;57.14
51321;BME280;38732;49.556;6.286;2023-03-20T12:40:16;100109.16;;;13.75;54.00
51321;BME280;38732;49.556;6.286;2023-03-20T12:43:13;100099.81;;;15.02;50.43
51321;BME280;38732;49.556;6.286;2023-03-20T12:45:58;100099.53;;;15.36;50.07
51321;BME280;38732;49.556;6.286;2023-03-20T12:48:42;100091.53;;;15.56;50.07
51321;BME280;38732;49.556;6.286;2023-03-20T12:51:45;100092.25;;;14.70;53.51
51321;BME280;38732;49.556;6.286;2023-03-20T12:54:37;100084.84;;;13.98;51.84
51321;BME280;38732;49.556;6.286;2023-03-20T12:57:32;100091.72;;;14.13;51.13
51321;BME280;38732;49.556;6.286;2023-03-20T13:00:25;100069.09;;;15.46;52.33
51321;BME280;38732;49.556;6.286;2023-03-20T13:03:24;100076.06;;;14.22;50.71
51321;BME280;38732;49.556;6.286;2023-03-20T13:06:08;100076.81;;;15.55;48.58
51321;BME280;38732;49.556;6.286;2023-03-20T13:09:01;100072.75;;;16.08;49.18
51321;BME280;38732;49.556;6.286;2023-03-20T13:11:45;100058.88;;;16.05;46.77
51321;BME280;38732;49.556;6.286;2023-03-20T13:16:57;100065.75;;;14.02;49.74
51321;BME280;38732;49.556;6.286;2023-03-20T13:19:43;100055.25;;;14.27;50.61
51321;BME280;38732;49.556;6.286;2023-03-20T13:22:25;100046.69;;;15.29;49.13
51321;BME280;38732;49.556;6.286;2023-03-20T13:28:02;100049.69;;;14.88;53.25
51321;BME280;38732;49.556;6.286;2023-03-20T13:30:44;100051.97;;;13.88;52.32
51321;BME280;38732;49.556;6.286;2023-03-20T13:39:02;100044.19;;;13.95;55.89
51321;BME280;38732;49.556;6.286;2023-03-20T13:41:33;100040.09;;;14.93;52.13
51321;BME280;38732;49.556;6.286;2023-03-20T13:44:04;100039.84;;;16.01;51.24
51321;BME280;38732;49.556;6.286;2023-03-20T13:46:56;100033.53;;;16.78;48.39
51321;BME280;38732;49.556;6.286;2023-03-20T13:52:48;100036.00;;;16.27;46.42
51321;BME280;38732;49.556;6.286;2023-03-20T13:55:31;100025.75;;;16.75;47.40
51321;BME280;38732;49.556;6.286;2023-03-20T14:00:53;100009.94;;;18.57;45.00
51321;BME280;38732;49.556;6.286;2023-03-20T14:03:28;99999.50;;;18.92;41.44
51321;BME280;38732;49.556;6.286;2023-03-20T14:05:58;100010.38;;;18.77;41.30
51321;BME280;38732;49.556;6.286;2023-03-20T14:13:40;100016.00;;;16.88;43.99
51321;BME280;38732;49.556;6.286;2023-03-20T14:16:14;100019.16;;;16.51;45.76
51321;BME280;38732;49.556;6.286;2023-03-20T14:18:44;100007.91;;;17.01;44.45
51321;BME280;38732;49.556;6.286;2023-03-20T14:21:19;100009.25;;;16.71;45.16
51321;BME280;38732;49.556;6.286;2023-03-20T14:23:58;100004.63;;;17.40;44.81
51321;BME280;38732;49.556;6.286;2023-03-20T14:26:30;100015.16;;;14.69;49.22
51321;BME280;38732;49.556;6.286;2023-03-20T14:29:26;100005.28;;;15.06;51.45
51321;BME280;38732;49.556;6.286;2023-03-20T14:32:21;99997.06;;;15.46;49.20
51321;BME280;38732;49.556;6.286;2023-03-20T14:41:01;100006.72;;;14.36;51.74